sensor_id;sensor_type;location;lat;lon;timestamp;temperature;humidity
15259;DHT22;34462;51.368;12.364;2022-10-16T00:01:43;14.90;99.90
15259;DHT22;34462;51.368;12.364;2022-10-16T00:04:12;14.90;99.90
15259;DHT22;34462;51.368;12.364;2022-10-16T00:06:40;14.70;99.90
15259;DHT22;34462;51.368;12.364;2022-10-16T00:09:10;14.80;99.90
15259;DHT22;34462;51.368;12.364;2022-10-16T00:11:39;14.70;99.90
15259;DHT22;34462;51.368;12.364;2022-10-16T00:14:09;14.60;99.90
15259;DHT22;34462;51.368;12.364;2022-10-16T00:16:39;14.60;99.90
15259;DHT22;34462;51.368;12.364;2022-10-16T00:19:08;14.50;99.90
15259;DHT22;34462;51.368;12.364;2022-10-16T00:21:36;14.50;99.90
15259;DHT22;34462;51.368;12.364;2022-10-16T00:24:07;14.50;99.90
15259;DHT22;34462;51.368;12.364;2022-10-16T00:26:38;14.50;99.90
15259;DHT22;34462;51.368;12.364;2022-10-16T00:29:07;14.60;99.90
15259;DHT22;34462;51.368;12.364;2022-10-16T00:31:36;14.60;99.90
15259;DHT22;34462;51.368;12.364;2022-10-16T00:34:04;14.60;99.90
15259;DHT22;34462;51.368;12.364;2022-10-16T00:36:32;14.80;99.90
15259;DHT22;34462;51.368;12.364;2022-10-16T00:39:01;14.80;99.90
15259;DHT22;34462;51.368;12.364;2022-10-16T00:41:30;14.90;99.90
15259;DHT22;34462;51.368;12.364;2022-10-16T00:44:02;15.00;99.90
15259;DHT22;34462;51.368;12.364;2022-10-16T00:46:35;15.10;99.90
15259;DHT22;34462;51.368;12.364;2022-10-16T00:49:09;15.10;99.90
15259;DHT22;34462;51.368;12.364;2022-10-16T00:51:40;15.20;99.90
15259;DHT22;34462;51.368;12.364;2022-10-16T00:54:13;15.20;99.90
15259;DHT22;34462;51.368;12.364;2022-10-16T00:56:45;15.20;99.90
15259;DHT22;34462;51.368;12.364;2022-10-16T00:59:19;15.20;99.90
15259;DHT22;34462;51.368;12.364;2022-10-16T01:01:51;15.20;99.90
15259;DHT22;34462;51.368;12.364;2022-10-16T01:04:19;15.20;99.90
15259;DHT22;34462;51.368;12.364;2022-10-16T01:06:54;15.20;99.90
15259;DHT22;34462;51.368;12.364;2022-10-16T01:09:33;15.10;99.90
15259;DHT22;34462;51.368;12.364;2022-10-16T01:12:15;15.10;99.90
15259;DHT22;34462;51.368;12.364;2022-10-16T01:14:54;15.10;99.90
15259;DHT22;34462;51.368;12.364;2022-10-16T01:17:32;15.00;99.90
15259;DHT22;34462;51.368;12.364;2022-10-16T01:20:10;15.00;99.90
15259;DHT22;34462;51.368;12.364;2022-10-16T01:23:01;15.10;99.90
15259;DHT22;34462;51.368;12.364;2022-10-16T01:25:46;15.10;99.90
15259;DHT22;34462;51.368;12.364;2022-10-16T01:28:29;15.00;99.90
15259;DHT22;34462;51.368;12.364;2022-10-16T01:31:04;15.00;99.90
15259;DHT22;34462;51.368;12.364;2022-10-16T01:33:37;15.10;99.90
15259;DHT22;34462;51.368;12.364;2022-10-16T01:36:13;14.90;99.90
15259;DHT22;34462;51.368;12.364;2022-10-16T01:38:47;15.00;99.90
15259;DHT22;34462;51.368;12.364;2022-10-16T01:41:22;14.80;99.90
15259;DHT22;34462;51.368;12.364;2022-10-16T01:43:58;14.80;99.90
15259;DHT22;34462;51.368;12.364;2022-10-16T01:46:32;14.80;99.90
15259;DHT22;34462;51.368;12.364;2022-10-16T01:49:03;14.80;99.90
15259;DHT22;34462;51.368;12.364;2022-10-16T01:51:32;14.70;99.90
15259;DHT22;34462;51.368;12.364;2022-10-16T01:54:04;14.70;99.90
15259;DHT22;34462;51.368;12.364;2022-10-16T01:56:36;14.60;99.90
15259;DHT22;34462;51.368;12.364;2022-10-16T01:59:10;14.50;99.90
15259;DHT22;34462;51.368;12.364;2022-10-16T02:01:45;14.50;99.90
15259;DHT22;34462;51.368;12.364;2022-10-16T02:04:20;14.50;99.90
15259;DHT22;34462;51.368;12.364;2022-10-16T02:06:54;14.40;99.90
15259;DHT22;34462;51.368;12.364;2022-10-16T02:09:23;14.30;99.90
15259;DHT22;34462;51.368;12.364;2022-10-16T02:11:53;14.30;99.90
15259;DHT22;34462;51.368;12.364;2022-10-16T02:14:26;14.20;99.90
15259;DHT22;34462;51.368;12.364;2022-10-16T02:16:54;14.30;99.90
15259;DHT22;34462;51.368;12.364;2022-10-16T02:19:22;14.30;99.90
15259;DHT22;34462;51.368;12.364;2022-10-16T02:21:55;14.20;99.90
15259;DHT22;34462;51.368;12.364;2022-10-16T02:24:30;14.30;99.90
15259;DHT22;34462;51.368;12.364;2022-10-16T02:27:05;14.20;99.90
15259;DHT22;34462;51.368;12.364;2022-10-16T02:29:41;14.20;99.90
15259;DHT22;34462;51.368;12.364;2022-10-16T02:32:17;14.10;99.90
15259;DHT22;34462;51.368;12.364;2022-10-16T02:34:49;14.20;99.90
15259;DHT22;34462;51.368;12.364;2022-10-16T02:37:19;14.20;99.90
15259;DHT22;34462;51.368;12.364;2022-10-16T02:39:47;14.20;99.90
15259;DHT22;34462;51.368;12.364;2022-10-16T02:42:17;14.30;99.90
15259;DHT22;34462;51.368;12.364;2022-10-16T02:44:47;14.30;99.90
15259;DHT22;34462;51.368;12.364;2022-10-16T02:47:15;14.30;99.90
15259;DHT22;34462;51.368;12.364;2022-10-16T02:49:43;14.30;99.90
15259;DHT22;34462;51.368;12.364;2022-10-16T02:52:11;14.30;99.90
15259;DHT22;34462;51.368;12.364;2022-10-16T02:54:39;14.30;99.90
15259;DHT22;34462;51.368;12.364;2022-10-16T02:57:07;14.30;99.90
15259;DHT22;34462;51.368;12.364;2022-10-16T02:59:35;14.30;99.90
15259;DHT22;34462;51.368;12.364;2022-10-16T03:02:05;14.30;99.90
15259;DHT22;34462;51.368;12.364;2022-10-16T03:04:33;14.30;99.90
15259;DHT22;34462;51.368;12.364;2022-10-16T03:07:01;14.30;99.90
15259;DHT22;34462;51.368;12.364;2022-10-16T03:09:30;14.30;99.90
15259;DHT22;34462;51.368;12.364;2022-10-16T03:11:58;14.40;99.90
15259;DHT22;34462;51.368;12.364;2022-10-16T03:14:26;14.30;99.90
15259;DHT22;34462;51.368;12.364;2022-10-16T03:16:59;14.30;99.90
15259;DHT22;34462;51.368;12.364;2022-10-16T03:19:28;14.20;99.90
15259;DHT22;34462;51.368;12.364;2022-10-16T03:21:56;14.30;99.90
15259;DHT22;34462;51.368;12.364;2022-10-16T03:24:24;14.20;99.90
15259;DHT22;34462;51.368;12.364;2022-10-16T03:26:52;14.30;99.90
15259;DHT22;34462;51.368;12.364;2022-10-16T03:29:20;14.20;99.90
15259;DHT22;34462;51.368;12.364;2022-10-16T03:31:48;14.20;99.90
15259;DHT22;34462;51.368;12.364;2022-10-16T03:34:16;14.20;99.90
15259;DHT22;34462;51.368;12.364;2022-10-16T03:36:46;14.20;99.90
15259;DHT22;34462;51.368;12.364;2022-10-16T03:39:14;14.20;99.90
15259;DHT22;34462;51.368;12.364;2022-10-16T03:41:42;14.20;99.90
15259;DHT22;34462;51.368;12.364;2022-10-16T03:44:10;14.20;99.90
15259;DHT22;34462;51.368;12.364;2022-10-16T03:46:38;14.20;99.90
15259;DHT22;34462;51.368;12.364;2022-10-16T03:49:06;14.20;99.90
15259;DHT22;34462;51.368;12.364;2022-10-16T03:51:35;14.30;99.90
15259;DHT22;34462;51.368;12.364;2022-10-16T03:54:05;14.20;99.90
15259;DHT22;34462;51.368;12.364;2022-10-16T03:56:33;14.30;99.90
15259;DHT22;34462;51.368;12.364;2022-10-16T03:59:01;14.30;99.90
15259;DHT22;34462;51.368;12.364;2022-10-16T04:01:29;14.20;99.90
15259;DHT22;34462;51.368;12.364;2022-10-16T04:03:57;14.20;99.90
15259;DHT22;34462;51.368;12.364;2022-10-16T04:06:25;14.30;99.90
15259;DHT22;34462;51.368;12.364;2022-10-16T04:08:53;14.30;99.90
15259;DHT22;34462;51.368;12.364;2022-10-16T04:11:22;14.30;99.90
15259;DHT22;34462;51.368;12.364;2022-10-16T04:13:51;14.30;99.90
15259;DHT22;34462;51.368;12.364;2022-10-16T04:16:19;14.30;99.90
15259;DHT22;34462;51.368;12.364;2022-10-16T04:18:46;14.40;99.90
15259;DHT22;34462;51.368;12.364;2022-10-16T04:21:14;14.30;99.90
15259;DHT22;34462;51.368;12.364;2022-10-16T04:23:43;14.30;99.90
15259;DHT22;34462;51.368;12.364;2022-10-16T04:26:11;14.40;99.90
15259;DHT22;34462;51.368;12.364;2022-10-16T04:28:40;14.40;99.90
15259;DHT22;34462;51.368;12.364;2022-10-16T04:31:08;14.40;99.90
15259;DHT22;34462;51.368;12.364;2022-10-16T04:33:36;14.30;99.90
15259;DHT22;34462;51.368;12.364;2022-10-16T04:36:05;14.30;99.90
15259;DHT22;34462;51.368;12.364;2022-10-16T04:38:33;14.30;99.90
15259;DHT22;34462;51.368;12.364;2022-10-16T04:41:01;14.30;99.90
15259;DHT22;34462;51.368;12.364;2022-10-16T04:43:29;14.30;99.90
15259;DHT22;34462;51.368;12.364;2022-10-16T04:45:59;14.30;99.90
15259;DHT22;34462;51.368;12.364;2022-10-16T04:48:28;14.30;99.90
15259;DHT22;34462;51.368;12.364;2022-10-16T04:50:56;14.30;99.90
15259;DHT22;34462;51.368;12.364;2022-10-16T04:53:24;14.30;99.90
15259;DHT22;34462;51.368;12.364;2022-10-16T04:55:52;14.30;99.90
15259;DHT22;34462;51.368;12.364;2022-10-16T04:58:20;14.30;99.90
15259;DHT22;34462;51.368;12.364;2022-10-16T05:00:48;14.30;99.90
15259;DHT22;34462;51.368;12.364;2022-10-16T05:03:17;14.30;99.90
15259;DHT22;34462;51.368;12.364;2022-10-16T05:05:46;14.40;99.90
15259;DHT22;34462;51.368;12.364;2022-10-16T05:08:15;14.40;99.90
15259;DHT22;34462;51.368;12.364;2022-10-16T05:10:44;14.40;99.90
15259;DHT22;34462;51.368;12.364;2022-10-16T05:13:12;14.30;99.90
15259;DHT22;34462;51.368;12.364;2022-10-16T05:15:41;14.30;99.90
15259;DHT22;34462;51.368;12.364;2022-10-16T05:18:09;14.30;99.90
15259;DHT22;34462;51.368;12.364;2022-10-16T05:20:38;14.30;99.90
15259;DHT22;34462;51.368;12.364;2022-10-16T05:23:06;14.30;99.90
15259;DHT22;34462;51.368;12.364;2022-10-16T05:25:36;14.30;99.90
15259;DHT22;34462;51.368;12.364;2022-10-16T05:28:04;14.40;99.90
15259;DHT22;34462;51.368;12.364;2022-10-16T05:30:32;14.30;99.90
15259;DHT22;34462;51.368;12.364;2022-10-16T05:33:00;14.30;99.90
15259;DHT22;34462;51.368;12.364;2022-10-16T05:35:28;14.30;99.90
15259;DHT22;34462;51.368;12.364;2022-10-16T05:37:58;14.30;99.90
15259;DHT22;34462;51.368;12.364;2022-10-16T05:40:26;14.20;99.90
15259;DHT22;34462;51.368;12.364;2022-10-16T05:42:55;14.30;99.90
15259;DHT22;34462;51.368;12.364;2022-10-16T05:45:23;14.20;99.90
15259;DHT22;34462;51.368;12.364;2022-10-16T05:47:51;14.20;99.90
15259;DHT22;34462;51.368;12.364;2022-10-16T05:50:19;14.30;99.90
15259;DHT22;34462;51.368;12.364;2022-10-16T05:52:47;14.30;99.90
15259;DHT22;34462;51.368;12.364;2022-10-16T05:55:17;14.40;99.90
15259;DHT22;34462;51.368;12.364;2022-10-16T05:57:45;14.40;99.90
15259;DHT22;34462;51.368;12.364;2022-10-16T06:00:13;14.50;99.90
15259;DHT22;34462;51.368;12.364;2022-10-16T06:02:41;14.50;99.90
15259;DHT22;34462;51.368;12.364;2022-10-16T06:05:09;14.60;99.90
15259;DHT22;34462;51.368;12.364;2022-10-16T06:07:37;14.60;99.90
15259;DHT22;34462;51.368;12.364;2022-10-16T06:10:06;14.70;99.90
15259;DHT22;34462;51.368;12.364;2022-10-16T06:12:36;14.80;99.90
15259;DHT22;34462;51.368;12.364;2022-10-16T06:15:05;14.90;99.90
15259;DHT22;34462;51.368;12.364;2022-10-16T06:17:33;14.90;99.90
15259;DHT22;34462;51.368;12.364;2022-10-16T06:20:01;15.00;99.90
15259;DHT22;34462;51.368;12.364;2022-10-16T06:22:29;15.00;99.90
15259;DHT22;34462;51.368;12.364;2022-10-16T06:24:57;15.20;99.90
15259;DHT22;34462;51.368;12.364;2022-10-16T06:27:25;15.20;99.90
15259;DHT22;34462;51.368;12.364;2022-10-16T06:29:55;15.30;99.90
15259;DHT22;34462;51.368;12.364;2022-10-16T06:32:24;15.30;99.90
15259;DHT22;34462;51.368;12.364;2022-10-16T06:34:52;15.30;99.90
15259;DHT22;34462;51.368;12.364;2022-10-16T06:37:20;15.30;99.90
15259;DHT22;34462;51.368;12.364;2022-10-16T06:39:48;15.40;99.90
15259;DHT22;34462;51.368;12.364;2022-10-16T06:42:16;15.40;99.90
15259;DHT22;34462;51.368;12.364;2022-10-16T06:44:44;15.40;99.90
15259;DHT22;34462;51.368;12.364;2022-10-16T06:47:14;15.40;99.90
15259;DHT22;34462;51.368;12.364;2022-10-16T06:49:42;15.50;99.90
15259;DHT22;34462;51.368;12.364;2022-10-16T06:52:09;15.50;99.90
15259;DHT22;34462;51.368;12.364;2022-10-16T06:54:37;15.50;99.90
15259;DHT22;34462;51.368;12.364;2022-10-16T06:57:08;15.60;99.90
15259;DHT22;34462;51.368;12.364;2022-10-16T06:59:36;15.60;99.90
15259;DHT22;34462;51.368;12.364;2022-10-16T07:02:04;15.70;99.90
15259;DHT22;34462;51.368;12.364;2022-10-16T07:04:35;15.60;99.90
15259;DHT22;34462;51.368;12.364;2022-10-16T07:07:04;15.70;99.90
15259;DHT22;34462;51.368;12.364;2022-10-16T07:09:35;15.70;99.90
15259;DHT22;34462;51.368;12.364;2022-10-16T07:12:03;15.70;99.90
15259;DHT22;34462;51.368;12.364;2022-10-16T07:14:32;15.80;99.90
15259;DHT22;34462;51.368;12.364;2022-10-16T07:17:00;15.80;99.90
15259;DHT22;34462;51.368;12.364;2022-10-16T07:19:28;16.00;99.90
15259;DHT22;34462;51.368;12.364;2022-10-16T07:22:01;16.10;99.90
15259;DHT22;34462;51.368;12.364;2022-10-16T07:24:29;16.20;99.90
15259;DHT22;34462;51.368;12.364;2022-10-16T07:26:57;16.30;99.90
15259;DHT22;34462;51.368;12.364;2022-10-16T07:29:25;16.40;99.90
15259;DHT22;34462;51.368;12.364;2022-10-16T07:31:53;16.40;99.90
15259;DHT22;34462;51.368;12.364;2022-10-16T07:34:21;16.40;99.90
15259;DHT22;34462;51.368;12.364;2022-10-16T07:36:50;16.50;99.90
15259;DHT22;34462;51.368;12.364;2022-10-16T07:39:19;16.50;99.90
15259;DHT22;34462;51.368;12.364;2022-10-16T07:41:48;16.40;99.90
15259;DHT22;34462;51.368;12.364;2022-10-16T07:44:16;16.40;99.90
15259;DHT22;34462;51.368;12.364;2022-10-16T07:46:44;16.50;99.90
15259;DHT22;34462;51.368;12.364;2022-10-16T07:49:12;16.50;99.90
15259;DHT22;34462;51.368;12.364;2022-10-16T07:51:40;16.60;99.90
15259;DHT22;34462;51.368;12.364;2022-10-16T07:54:08;16.60;99.90
15259;DHT22;34462;51.368;12.364;2022-10-16T07:56:38;16.70;99.90
15259;DHT22;34462;51.368;12.364;2022-10-16T07:59:10;16.90;99.90
15259;DHT22;34462;51.368;12.364;2022-10-16T08:01:38;17.10;99.90
15259;DHT22;34462;51.368;12.364;2022-10-16T08:04:06;17.20;99.90
15259;DHT22;34462;51.368;12.364;2022-10-16T08:06:36;17.40;99.90
15259;DHT22;34462;51.368;12.364;2022-10-16T08:09:05;17.50;99.90
15259;DHT22;34462;51.368;12.364;2022-10-16T08:11:34;17.60;99.90
15259;DHT22;34462;51.368;12.364;2022-10-16T08:14:03;17.80;99.90
15259;DHT22;34462;51.368;12.364;2022-10-16T08:16:32;18.20;99.90
15259;DHT22;34462;51.368;12.364;2022-10-16T08:19:00;18.50;99.90
15259;DHT22;34462;51.368;12.364;2022-10-16T08:21:28;18.70;99.90
15259;DHT22;34462;51.368;12.364;2022-10-16T08:23:56;19.00;99.90
15259;DHT22;34462;51.368;12.364;2022-10-16T08:26:25;19.40;99.90
15259;DHT22;34462;51.368;12.364;2022-10-16T08:28:54;19.50;99.90
15259;DHT22;34462;51.368;12.364;2022-10-16T08:31:25;19.40;99.90
15259;DHT22;34462;51.368;12.364;2022-10-16T08:33:53;19.20;99.90
15259;DHT22;34462;51.368;12.364;2022-10-16T08:36:21;19.10;99.90
15259;DHT22;34462;51.368;12.364;2022-10-16T08:38:50;19.00;99.90
15259;DHT22;34462;51.368;12.364;2022-10-16T08:47:48;18.90;99.90
15259;DHT22;34462;51.368;12.364;2022-10-16T08:50:24;19.20;99.90
15259;DHT22;34462;51.368;12.364;2022-10-16T08:52:55;19.20;99.90
15259;DHT22;34462;51.368;12.364;2022-10-16T08:55:30;19.20;99.90
15259;DHT22;34462;51.368;12.364;2022-10-16T08:58:01;19.10;99.90
15259;DHT22;34462;51.368;12.364;2022-10-16T09:00:30;19.10;99.90
15259;DHT22;34462;51.368;12.364;2022-10-16T09:03:06;19.10;99.90
15259;DHT22;34462;51.368;12.364;2022-10-16T09:05:57;19.30;99.90
15259;DHT22;34462;51.368;12.364;2022-10-16T09:08:55;19.40;99.90
15259;DHT22;34462;51.368;12.364;2022-10-16T09:11:43;19.50;99.90
15259;DHT22;34462;51.368;12.364;2022-10-16T09:14:34;19.90;99.90
15259;DHT22;34462;51.368;12.364;2022-10-16T09:17:30;20.20;99.90
15259;DHT22;34462;51.368;12.364;2022-10-16T09:20:18;20.40;99.90
15259;DHT22;34462;51.368;12.364;2022-10-16T09:23:08;20.30;99.90
15259;DHT22;34462;51.368;12.364;2022-10-16T09:25:43;20.10;99.90
15259;DHT22;34462;51.368;12.364;2022-10-16T09:28:14;20.00;99.90
15259;DHT22;34462;51.368;12.364;2022-10-16T09:30:44;19.80;99.90
15259;DHT22;34462;51.368;12.364;2022-10-16T09:33:16;19.90;99.90
15259;DHT22;34462;51.368;12.364;2022-10-16T09:35:50;19.80;99.90
15259;DHT22;34462;51.368;12.364;2022-10-16T09:38:24;19.70;99.90
15259;DHT22;34462;51.368;12.364;2022-10-16T09:40:55;19.80;99.90
15259;DHT22;34462;51.368;12.364;2022-10-16T09:43:34;19.70;99.90
15259;DHT22;34462;51.368;12.364;2022-10-16T09:46:08;19.90;99.90
15259;DHT22;34462;51.368;12.364;2022-10-16T09:48:52;20.10;99.90
15259;DHT22;34462;51.368;12.364;2022-10-16T09:51:26;20.30;99.90
15259;DHT22;34462;51.368;12.364;2022-10-16T09:53:58;20.50;99.90
15259;DHT22;34462;51.368;12.364;2022-10-16T09:56:28;20.60;99.90
15259;DHT22;34462;51.368;12.364;2022-10-16T09:59:00;20.50;99.90
15259;DHT22;34462;51.368;12.364;2022-10-16T10:01:35;20.70;99.90
15259;DHT22;34462;51.368;12.364;2022-10-16T10:04:06;20.70;99.90
15259;DHT22;34462;51.368;12.364;2022-10-16T10:06:40;20.70;99.90
15259;DHT22;34462;51.368;12.364;2022-10-16T10:09:20;20.50;99.90
15259;DHT22;34462;51.368;12.364;2022-10-16T10:11:52;20.30;99.90
15259;DHT22;34462;51.368;12.364;2022-10-16T10:14:34;20.30;99.90
15259;DHT22;34462;51.368;12.364;2022-10-16T10:17:13;20.20;99.90
15259;DHT22;34462;51.368;12.364;2022-10-16T10:19:47;20.50;99.90
15259;DHT22;34462;51.368;12.364;2022-10-16T10:22:26;20.60;99.90
15259;DHT22;34462;51.368;12.364;2022-10-16T10:25:13;20.70;99.90
15259;DHT22;34462;51.368;12.364;2022-10-16T10:28:01;20.70;99.90
15259;DHT22;34462;51.368;12.364;2022-10-16T10:30:48;20.80;99.90
15259;DHT22;34462;51.368;12.364;2022-10-16T10:33:28;20.80;99.90
15259;DHT22;34462;51.368;12.364;2022-10-16T10:36:12;20.70;99.90
15259;DHT22;34462;51.368;12.364;2022-10-16T10:38:51;20.60;99.90
15259;DHT22;34462;51.368;12.364;2022-10-16T10:44:57;20.30;99.90
15259;DHT22;34462;51.368;12.364;2022-10-16T10:47:49;20.20;99.90
15259;DHT22;34462;51.368;12.364;2022-10-16T10:50:39;20.10;99.90
15259;DHT22;34462;51.368;12.364;2022-10-16T10:53:33;20.10;99.90
15259;DHT22;34462;51.368;12.364;2022-10-16T10:56:22;19.90;99.90
15259;DHT22;34462;51.368;12.364;2022-10-16T10:59:24;20.00;99.90
15259;DHT22;34462;51.368;12.364;2022-10-16T11:02:18;20.10;99.90
15259;DHT22;34462;51.368;12.364;2022-10-16T11:05:20;20.10;99.90
15259;DHT22;34462;51.368;12.364;2022-10-16T11:07:58;20.30;99.90
15259;DHT22;34462;51.368;12.364;2022-10-16T11:10:33;20.30;99.90
15259;DHT22;34462;51.368;12.364;2022-10-16T11:13:22;20.30;99.90
15259;DHT22;34462;51.368;12.364;2022-10-16T11:15:58;20.40;99.90
15259;DHT22;34462;51.368;12.364;2022-10-16T11:18:37;20.40;99.90
15259;DHT22;34462;51.368;12.364;2022-10-16T11:21:14;20.40;99.90
15259;DHT22;34462;51.368;12.364;2022-10-16T11:23:50;20.50;99.90
15259;DHT22;34462;51.368;12.364;2022-10-16T11:26:26;20.50;99.90
15259;DHT22;34462;51.368;12.364;2022-10-16T11:29:02;20.50;99.90
15259;DHT22;34462;51.368;12.364;2022-10-16T11:31:41;20.60;99.90
15259;DHT22;34462;51.368;12.364;2022-10-16T11:34:21;20.70;99.90
15259;DHT22;34462;51.368;12.364;2022-10-16T11:36:56;20.80;99.90
15259;DHT22;34462;51.368;12.364;2022-10-16T11:39:30;20.80;99.90
15259;DHT22;34462;51.368;12.364;2022-10-16T11:42:02;20.80;99.90
15259;DHT22;34462;51.368;12.364;2022-10-16T11:44:48;20.80;99.90
15259;DHT22;34462;51.368;12.364;2022-10-16T11:47:30;20.80;99.90
15259;DHT22;34462;51.368;12.364;2022-10-16T11:50:26;20.70;99.90
15259;DHT22;34462;51.368;12.364;2022-10-16T11:53:03;20.80;99.90
15259;DHT22;34462;51.368;12.364;2022-10-16T11:55:40;20.70;99.90
15259;DHT22;34462;51.368;12.364;2022-10-16T11:58:19;20.70;99.90
15259;DHT22;34462;51.368;12.364;2022-10-16T12:01:00;20.70;99.90
15259;DHT22;34462;51.368;12.364;2022-10-16T12:03:41;20.50;99.90
15259;DHT22;34462;51.368;12.364;2022-10-16T12:06:25;20.60;99.90
15259;DHT22;34462;51.368;12.364;2022-10-16T12:08:59;20.50;99.90
15259;DHT22;34462;51.368;12.364;2022-10-16T12:11:35;20.60;99.90
15259;DHT22;34462;51.368;12.364;2022-10-16T12:14:21;20.50;99.90
15259;DHT22;34462;51.368;12.364;2022-10-16T12:17:34;20.50;99.90
15259;DHT22;34462;51.368;12.364;2022-10-16T12:20:21;20.30;99.90
15259;DHT22;34462;51.368;12.364;2022-10-16T12:22:55;20.10;99.90
15259;DHT22;34462;51.368;12.364;2022-10-16T12:25:27;20.00;99.90
15259;DHT22;34462;51.368;12.364;2022-10-16T12:28:00;19.90;99.90
15259;DHT22;34462;51.368;12.364;2022-10-16T12:30:31;19.70;99.90
15259;DHT22;34462;51.368;12.364;2022-10-16T12:33:05;19.70;99.90
15259;DHT22;34462;51.368;12.364;2022-10-16T12:35:42;19.50;99.90
15259;DHT22;34462;51.368;12.364;2022-10-16T12:38:17;19.40;99.90
15259;DHT22;34462;51.368;12.364;2022-10-16T12:40:55;19.40;99.90
15259;DHT22;34462;51.368;12.364;2022-10-16T12:43:35;19.30;99.90
15259;DHT22;34462;51.368;12.364;2022-10-16T12:46:22;19.20;99.90
15259;DHT22;34462;51.368;12.364;2022-10-16T12:48:53;19.40;99.90
15259;DHT22;34462;51.368;12.364;2022-10-16T12:51:36;19.60;99.90
15259;DHT22;34462;51.368;12.364;2022-10-16T12:54:13;19.60;99.90
15259;DHT22;34462;51.368;12.364;2022-10-16T12:56:51;19.70;99.90
15259;DHT22;34462;51.368;12.364;2022-10-16T12:59:38;19.70;99.90
15259;DHT22;34462;51.368;12.364;2022-10-16T13:02:29;19.80;99.90
15259;DHT22;34462;51.368;12.364;2022-10-16T13:05:22;19.70;99.90
15259;DHT22;34462;51.368;12.364;2022-10-16T13:08:04;19.90;99.90
15259;DHT22;34462;51.368;12.364;2022-10-16T13:10:55;19.90;99.90
15259;DHT22;34462;51.368;12.364;2022-10-16T13:13:47;19.90;99.90
15259;DHT22;34462;51.368;12.364;2022-10-16T13:16:35;20.00;99.90
15259;DHT22;34462;51.368;12.364;2022-10-16T13:19:22;20.10;99.90
15259;DHT22;34462;51.368;12.364;2022-10-16T13:22:04;20.10;99.90
15259;DHT22;34462;51.368;12.364;2022-10-16T13:24:55;20.10;99.90
15259;DHT22;34462;51.368;12.364;2022-10-16T13:27:40;20.20;99.90
15259;DHT22;34462;51.368;12.364;2022-10-16T13:30:17;20.30;99.90
15259;DHT22;34462;51.368;12.364;2022-10-16T13:32:59;20.50;99.90
15259;DHT22;34462;51.368;12.364;2022-10-16T13:35:32;20.50;99.90
15259;DHT22;34462;51.368;12.364;2022-10-16T13:38:12;20.50;99.90
15259;DHT22;34462;51.368;12.364;2022-10-16T13:40:49;20.40;99.90
15259;DHT22;34462;51.368;12.364;2022-10-16T13:43:20;20.40;99.90
15259;DHT22;34462;51.368;12.364;2022-10-16T13:45:57;20.40;99.90
15259;DHT22;34462;51.368;12.364;2022-10-16T13:48:28;20.30;99.90
15259;DHT22;34462;51.368;12.364;2022-10-16T13:51:06;20.30;99.90
15259;DHT22;34462;51.368;12.364;2022-10-16T13:53:41;20.20;99.90
15259;DHT22;34462;51.368;12.364;2022-10-16T13:56:13;20.00;99.90
15259;DHT22;34462;51.368;12.364;2022-10-16T13:58:42;19.80;99.90
15259;DHT22;34462;51.368;12.364;2022-10-16T14:01:17;19.80;99.90
15259;DHT22;34462;51.368;12.364;2022-10-16T14:03:48;19.80;99.90
15259;DHT22;34462;51.368;12.364;2022-10-16T14:06:19;19.90;99.90
15259;DHT22;34462;51.368;12.364;2022-10-16T14:08:59;19.90;99.90
15259;DHT22;34462;51.368;12.364;2022-10-16T14:11:33;20.00;99.90
15259;DHT22;34462;51.368;12.364;2022-10-16T14:14:04;20.00;99.90
15259;DHT22;34462;51.368;12.364;2022-10-16T14:16:33;20.00;99.90
15259;DHT22;34462;51.368;12.364;2022-10-16T14:19:03;20.00;99.90
15259;DHT22;34462;51.368;12.364;2022-10-16T14:21:33;19.80;99.90
15259;DHT22;34462;51.368;12.364;2022-10-16T14:24:12;19.80;99.90
15259;DHT22;34462;51.368;12.364;2022-10-16T14:26:42;19.70;99.90
15259;DHT22;34462;51.368;12.364;2022-10-16T14:29:19;19.70;99.90
15259;DHT22;34462;51.368;12.364;2022-10-16T14:31:54;19.60;99.90
15259;DHT22;34462;51.368;12.364;2022-10-16T14:34:26;19.60;99.90
15259;DHT22;34462;51.368;12.364;2022-10-16T14:36:55;19.60;99.90
15259;DHT22;34462;51.368;12.364;2022-10-16T14:39:27;19.70;99.90
15259;DHT22;34462;51.368;12.364;2022-10-16T14:41:57;19.70;99.90
15259;DHT22;34462;51.368;12.364;2022-10-16T14:44:29;19.70;99.90
15259;DHT22;34462;51.368;12.364;2022-10-16T14:47:08;19.70;99.90
15259;DHT22;34462;51.368;12.364;2022-10-16T14:49:41;19.70;99.90
15259;DHT22;34462;51.368;12.364;2022-10-16T14:52:10;19.60;99.90
15259;DHT22;34462;51.368;12.364;2022-10-16T14:54:40;19.60;99.90
15259;DHT22;34462;51.368;12.364;2022-10-16T14:57:17;19.60;99.90
15259;DHT22;34462;51.368;12.364;2022-10-16T14:59:47;19.50;99.90
15259;DHT22;34462;51.368;12.364;2022-10-16T15:02:22;19.40;99.90
15259;DHT22;34462;51.368;12.364;2022-10-16T15:04:55;19.30;99.90
15259;DHT22;34462;51.368;12.364;2022-10-16T15:07:23;19.10;99.90
15259;DHT22;34462;51.368;12.364;2022-10-16T15:09:54;18.90;99.90
15259;DHT22;34462;51.368;12.364;2022-10-16T15:12:23;18.70;99.90
15259;DHT22;34462;51.368;12.364;2022-10-16T15:14:51;18.70;99.90
15259;DHT22;34462;51.368;12.364;2022-10-16T15:17:19;18.60;99.90
15259;DHT22;34462;51.368;12.364;2022-10-16T15:19:47;18.50;99.90
15259;DHT22;34462;51.368;12.364;2022-10-16T15:22:15;18.40;99.90
15259;DHT22;34462;51.368;12.364;2022-10-16T15:24:43;18.40;99.90
15259;DHT22;34462;51.368;12.364;2022-10-16T15:27:13;18.30;99.90
15259;DHT22;34462;51.368;12.364;2022-10-16T15:29:41;18.20;99.90
15259;DHT22;34462;51.368;12.364;2022-10-16T15:32:10;18.10;99.90
15259;DHT22;34462;51.368;12.364;2022-10-16T15:34:38;18.00;99.90
15259;DHT22;34462;51.368;12.364;2022-10-16T15:37:06;17.90;99.90
15259;DHT22;34462;51.368;12.364;2022-10-16T15:39:34;17.90;99.90
15259;DHT22;34462;51.368;12.364;2022-10-16T15:42:07;17.80;99.90
15259;DHT22;34462;51.368;12.364;2022-10-16T15:44:36;17.90;99.90
15259;DHT22;34462;51.368;12.364;2022-10-16T15:47:04;17.90;99.90
15259;DHT22;34462;51.368;12.364;2022-10-16T15:49:32;17.90;99.90
15259;DHT22;34462;51.368;12.364;2022-10-16T15:52:00;17.90;99.90
15259;DHT22;34462;51.368;12.364;2022-10-16T15:54:28;17.90;99.90
15259;DHT22;34462;51.368;12.364;2022-10-16T15:56:56;18.00;99.90
15259;DHT22;34462;51.368;12.364;2022-10-16T15:59:24;18.00;99.90
15259;DHT22;34462;51.368;12.364;2022-10-16T16:01:53;18.00;99.90